sensor_id;sensor_type;location;lat;lon;timestamp;pressure;altitude;pressure_sealevel;temperature;humidity
58223;BME280;44020;50.890;15.796;2022-09-09T00:03:56;97337.14;;;13.05;89.36
58223;BME280;44020;50.890;15.796;2022-09-09T00:14:10;97335.41;;;12.99;89.30
58223;BME280;44020;50.890;15.796;2022-09-09T01:16:40;97346.27;;;12.26;88.16
58223;BME280;44020;50.890;15.796;2022-09-09T01:19:56;97349.25;;;12.23;88.17
58223;BME280;44020;50.890;15.796;2022-09-09T01:37:27;97352.84;;;11.96;88.19
58223;BME280;44020;50.890;15.796;2022-09-09T01:40:26;97358.94;;;11.94;88.39
58223;BME280;44020;50.890;15.796;2022-09-09T01:43:54;97358.14;;;11.93;88.38
58223;BME280;44020;50.890;15.796;2022-09-09T01:49:52;97350.22;;;11.92;88.45
58223;BME280;44020;50.890;15.796;2022-09-09T01:59:59;97349.48;;;11.90;88.44
58223;BME280;44020;50.890;15.796;2022-09-09T02:02:36;97354.83;;;11.87;88.16
58223;BME280;44020;50.890;15.796;2022-09-09T02:07:49;97356.59;;;11.81;88.27
58223;BME280;44020;50.890;15.796;2022-09-09T02:12:55;97356.48;;;11.73;88.45
58223;BME280;44020;50.890;15.796;2022-09-09T02:15:38;97356.67;;;11.73;88.62
58223;BME280;44020;50.890;15.796;2022-09-09T02:18:09;97351.48;;;11.71;88.41
58223;BME280;44020;50.890;15.796;2022-09-09T02:20:41;97354.42;;;11.68;88.27
58223;BME280;44020;50.890;15.796;2022-09-09T02:23:10;97355.49;;;11.66;88.44
58223;BME280;44020;50.890;15.796;2022-09-09T02:25:40;97356.17;;;11.66;88.33
58223;BME280;44020;50.890;15.796;2022-09-09T02:28:09;97360.83;;;11.63;88.09
58223;BME280;44020;50.890;15.796;2022-09-09T02:30:37;97360.69;;;11.59;87.86
58223;BME280;44020;50.890;15.796;2022-09-09T02:33:07;97362.25;;;11.57;87.88
58223;BME280;44020;50.890;15.796;2022-09-09T02:35:37;97363.44;;;11.53;87.74
58223;BME280;44020;50.890;15.796;2022-09-09T02:38:10;97360.75;;;11.49;87.60
58223;BME280;44020;50.890;15.796;2022-09-09T02:40:38;97364.16;;;11.46;87.65
58223;BME280;44020;50.890;15.796;2022-09-09T02:43:05;97363.61;;;11.42;87.49
58223;BME280;44020;50.890;15.796;2022-09-09T02:45:48;97367.25;;;11.36;87.27
58223;BME280;44020;50.890;15.796;2022-09-09T02:48:43;97367.05;;;11.32;87.20
58223;BME280;44020;50.890;15.796;2022-09-09T02:51:27;97365.11;;;11.27;87.32
58223;BME280;44020;50.890;15.796;2022-09-09T02:54:28;97367.11;;;11.24;87.23
58223;BME280;44020;50.890;15.796;2022-09-09T02:57:04;97369.35;;;11.21;87.47
58223;BME280;44020;50.890;15.796;2022-09-09T02:59:33;97368.45;;;11.21;87.55
58223;BME280;44020;50.890;15.796;2022-09-09T03:02:00;97366.56;;;11.20;87.46
58223;BME280;44020;50.890;15.796;2022-09-09T03:04:27;97370.63;;;11.20;87.74
58223;BME280;44020;50.890;15.796;2022-09-09T03:06:55;97366.52;;;11.21;87.51
58223;BME280;44020;50.890;15.796;2022-09-09T03:09:22;97368.79;;;11.19;87.64
58223;BME280;44020;50.890;15.796;2022-09-09T03:11:50;97371.41;;;11.17;87.73
58223;BME280;44020;50.890;15.796;2022-09-09T03:14:17;97377.45;;;11.15;87.75
58223;BME280;44020;50.890;15.796;2022-09-09T03:16:47;97380.93;;;11.14;87.99
58223;BME280;44020;50.890;15.796;2022-09-09T03:19:15;97378.58;;;11.10;87.99
58223;BME280;44020;50.890;15.796;2022-09-09T03:21:42;97379.11;;;11.07;88.15
58223;BME280;44020;50.890;15.796;2022-09-09T03:24:08;97379.14;;;11.05;88.13
58223;BME280;44020;50.890;15.796;2022-09-09T03:26:36;97379.08;;;11.03;88.06
58223;BME280;44020;50.890;15.796;2022-09-09T03:29:04;97378.55;;;10.98;87.84
58223;BME280;44020;50.890;15.796;2022-09-09T03:31:33;97380.73;;;10.98;88.43
58223;BME280;44020;50.890;15.796;2022-09-09T03:34:02;97380.98;;;10.99;88.49
58223;BME280;44020;50.890;15.796;2022-09-09T03:36:29;97383.36;;;10.98;88.64
58223;BME280;44020;50.890;15.796;2022-09-09T03:38:57;97381.42;;;10.98;88.47
58223;BME280;44020;50.890;15.796;2022-09-09T03:41:25;97379.91;;;10.97;88.51
58223;BME280;44020;50.890;15.796;2022-09-09T03:43:53;97380.40;;;10.95;88.56
58223;BME280;44020;50.890;15.796;2022-09-09T03:46:22;97380.55;;;10.94;88.47
58223;BME280;44020;50.890;15.796;2022-09-09T03:48:50;97376.63;;;10.91;88.27
58223;BME280;44020;50.890;15.796;2022-09-09T03:51:19;97379.95;;;10.88;88.58
58223;BME280;44020;50.890;15.796;2022-09-09T03:53:46;97383.14;;;10.88;88.74
58223;BME280;44020;50.890;15.796;2022-09-09T03:56:13;97387.59;;;10.88;88.65
58223;BME280;44020;50.890;15.796;2022-09-09T03:58:41;97391.33;;;10.87;88.67
58223;BME280;44020;50.890;15.796;2022-09-09T04:01:10;97387.91;;;10.83;88.46
58223;BME280;44020;50.890;15.796;2022-09-09T04:03:41;97385.52;;;10.79;88.05
58223;BME280;44020;50.890;15.796;2022-09-09T04:06:10;97388.69;;;10.78;88.13
58223;BME280;44020;50.890;15.796;2022-09-09T04:08:39;97388.98;;;10.74;88.07
58223;BME280;44020;50.890;15.796;2022-09-09T04:11:07;97391.64;;;10.67;87.87
58223;BME280;44020;50.890;15.796;2022-09-09T04:13:35;97391.87;;;10.61;87.89
58223;BME280;44020;50.890;15.796;2022-09-09T04:16:04;97393.92;;;10.60;87.87
58223;BME280;44020;50.890;15.796;2022-09-09T04:18:33;97392.73;;;10.59;88.02
58223;BME280;44020;50.890;15.796;2022-09-09T04:21:01;97390.69;;;10.58;88.17
58223;BME280;44020;50.890;15.796;2022-09-09T04:23:29;97392.95;;;10.56;88.28
58223;BME280;44020;50.890;15.796;2022-09-09T04:25:58;97390.17;;;10.58;88.24
58223;BME280;44020;50.890;15.796;2022-09-09T04:28:28;97389.80;;;10.56;88.15
58223;BME280;44020;50.890;15.796;2022-09-09T04:30:56;97397.41;;;10.54;88.21
58223;BME280;44020;50.890;15.796;2022-09-09T04:33:24;97401.85;;;10.54;88.35
58223;BME280;44020;50.890;15.796;2022-09-09T04:35:54;97403.86;;;10.53;88.28
58223;BME280;44020;50.890;15.796;2022-09-09T04:38:21;97402.52;;;10.52;88.31
58223;BME280;44020;50.890;15.796;2022-09-09T04:40:50;97407.29;;;10.52;88.33
58223;BME280;44020;50.890;15.796;2022-09-09T04:43:18;97407.20;;;10.51;88.24
58223;BME280;44020;50.890;15.796;2022-09-09T04:45:49;97405.45;;;10.48;88.12
58223;BME280;44020;50.890;15.796;2022-09-09T04:48:18;97407.20;;;10.49;88.26
58223;BME280;44020;50.890;15.796;2022-09-09T04:53:23;97407.52;;;10.45;88.00
58223;BME280;44020;50.890;15.796;2022-09-09T04:55:50;97410.88;;;10.45;88.49
58223;BME280;44020;50.890;15.796;2022-09-09T04:58:17;97411.70;;;10.48;88.63
58223;BME280;44020;50.890;15.796;2022-09-09T05:00:44;97410.48;;;10.50;88.50
58223;BME280;44020;50.890;15.796;2022-09-09T05:03:12;97417.91;;;10.51;88.38
58223;BME280;44020;50.890;15.796;2022-09-09T05:05:39;97420.24;;;10.52;88.48
58223;BME280;44020;50.890;15.796;2022-09-09T05:08:07;97418.08;;;10.53;88.38
58223;BME280;44020;50.890;15.796;2022-09-09T05:10:37;97415.65;;;10.55;88.73
58223;BME280;44020;50.890;15.796;2022-09-09T05:13:05;97416.66;;;10.58;88.78
58223;BME280;44020;50.890;15.796;2022-09-09T05:15:33;97418.55;;;10.61;88.79
58223;BME280;44020;50.890;15.796;2022-09-09T05:18:00;97417.41;;;10.64;88.91
58223;BME280;44020;50.890;15.796;2022-09-09T05:20:28;97416.80;;;10.68;88.96
58223;BME280;44020;50.890;15.796;2022-09-09T05:22:56;97413.99;;;10.70;88.82
58223;BME280;44020;50.890;15.796;2022-09-09T05:25:24;97416.88;;;10.74;89.23
58223;BME280;44020;50.890;15.796;2022-09-09T05:27:52;97414.48;;;10.77;89.59
58223;BME280;44020;50.890;15.796;2022-09-09T05:30:21;97413.39;;;10.85;89.74
58223;BME280;44020;50.890;15.796;2022-09-09T05:32:50;97419.30;;;10.93;89.95
58223;BME280;44020;50.890;15.796;2022-09-09T05:35:17;97422.60;;;10.99;90.05
58223;BME280;44020;50.890;15.796;2022-09-09T05:37:45;97422.45;;;11.06;90.21
58223;BME280;44020;50.890;15.796;2022-09-09T05:40:12;97422.19;;;11.11;90.31
58223;BME280;44020;50.890;15.796;2022-09-09T05:42:40;97421.36;;;11.18;90.63
58223;BME280;44020;50.890;15.796;2022-09-09T05:45:08;97424.91;;;11.24;90.92
58223;BME280;44020;50.890;15.796;2022-09-09T05:47:36;97423.44;;;11.30;91.18
58223;BME280;44020;50.890;15.796;2022-09-09T05:50:04;97421.50;;;11.34;91.35
58223;BME280;44020;50.890;15.796;2022-09-09T05:52:31;97424.88;;;11.38;91.63
58223;BME280;44020;50.890;15.796;2022-09-09T05:54:58;97421.02;;;11.42;91.70
58223;BME280;44020;50.890;15.796;2022-09-09T05:57:26;97421.14;;;11.45;91.95
58223;BME280;44020;50.890;15.796;2022-09-09T05:59:53;97420.77;;;11.51;91.97
58223;BME280;44020;50.890;15.796;2022-09-09T06:02:20;97420.05;;;11.55;92.37
58223;BME280;44020;50.890;15.796;2022-09-09T06:04:47;97413.36;;;11.61;92.51
58223;BME280;44020;50.890;15.796;2022-09-09T06:07:14;97408.83;;;11.66;92.61
58223;BME280;44020;50.890;15.796;2022-09-09T06:09:41;97409.95;;;11.73;92.65
58223;BME280;44020;50.890;15.796;2022-09-09T06:12:08;97407.48;;;11.79;92.88
58223;BME280;44020;50.890;15.796;2022-09-09T06:14:35;97406.14;;;11.84;92.99
58223;BME280;44020;50.890;15.796;2022-09-09T06:17:03;97398.96;;;11.90;93.20
58223;BME280;44020;50.890;15.796;2022-09-09T06:19:30;97397.84;;;11.95;93.17
58223;BME280;44020;50.890;15.796;2022-09-09T06:21:57;97396.02;;;12.00;93.25
58223;BME280;44020;50.890;15.796;2022-09-09T06:24:25;97396.64;;;12.03;93.50
58223;BME280;44020;50.890;15.796;2022-09-09T06:26:52;97407.72;;;12.10;93.63
58223;BME280;44020;50.890;15.796;2022-09-09T06:29:20;97409.27;;;12.14;93.72
58223;BME280;44020;50.890;15.796;2022-09-09T06:31:47;97409.08;;;12.19;94.02
58223;BME280;44020;50.890;15.796;2022-09-09T06:34:14;97397.65;;;12.23;93.95
58223;BME280;44020;50.890;15.796;2022-09-09T06:36:41;97399.16;;;12.29;94.35
58223;BME280;44020;50.890;15.796;2022-09-09T06:39:09;97402.73;;;12.36;94.37
58223;BME280;44020;50.890;15.796;2022-09-09T06:41:37;97403.81;;;12.42;94.46
58223;BME280;44020;50.890;15.796;2022-09-09T06:44:05;97404.89;;;12.48;94.59
58223;BME280;44020;50.890;15.796;2022-09-09T06:46:32;97399.02;;;12.55;94.92
58223;BME280;44020;50.890;15.796;2022-09-09T06:49:00;97397.48;;;12.62;95.07
58223;BME280;44020;50.890;15.796;2022-09-09T06:51:30;97397.89;;;12.70;95.14
58223;BME280;44020;50.890;15.796;2022-09-09T06:53:59;97397.09;;;12.78;95.16
58223;BME280;44020;50.890;15.796;2022-09-09T06:58:59;97398.17;;;12.90;95.45
58223;BME280;44020;50.890;15.796;2022-09-09T07:01:36;97394.59;;;12.99;95.28
58223;BME280;44020;50.890;15.796;2022-09-09T07:04:04;97399.24;;;13.07;95.17
58223;BME280;44020;50.890;15.796;2022-09-09T07:06:36;97401.19;;;13.13;95.29
58223;BME280;44020;50.890;15.796;2022-09-09T07:09:08;97399.70;;;13.23;95.32
58223;BME280;44020;50.890;15.796;2022-09-09T07:11:43;97396.17;;;13.29;95.28
58223;BME280;44020;50.890;15.796;2022-09-09T07:14:11;97391.66;;;13.36;95.35
58223;BME280;44020;50.890;15.796;2022-09-09T07:16:44;97388.55;;;13.44;95.47
58223;BME280;44020;50.890;15.796;2022-09-09T07:19:13;97391.35;;;13.51;95.45
58223;BME280;44020;50.890;15.796;2022-09-09T07:21:41;97389.77;;;13.55;95.52
58223;BME280;44020;50.890;15.796;2022-09-09T07:24:09;97395.85;;;13.61;95.71
58223;BME280;44020;50.890;15.796;2022-09-09T07:26:38;97397.45;;;13.67;95.87
58223;BME280;44020;50.890;15.796;2022-09-09T07:29:06;97400.07;;;13.72;95.96
58223;BME280;44020;50.890;15.796;2022-09-09T07:31:36;97401.45;;;13.77;96.08
58223;BME280;44020;50.890;15.796;2022-09-09T07:34:04;97401.70;;;13.82;96.25
58223;BME280;44020;50.890;15.796;2022-09-09T07:36:37;97401.82;;;13.87;96.37
58223;BME280;44020;50.890;15.796;2022-09-09T07:39:12;97398.17;;;13.95;96.57
58223;BME280;44020;50.890;15.796;2022-09-09T07:41:45;97401.45;;;14.03;96.83
58223;BME280;44020;50.890;15.796;2022-09-09T07:44:14;97395.89;;;14.09;97.00
58223;BME280;44020;50.890;15.796;2022-09-09T07:46:42;97403.78;;;14.17;97.01
58223;BME280;44020;50.890;15.796;2022-09-09T07:49:09;97405.19;;;14.25;97.33
58223;BME280;44020;50.890;15.796;2022-09-09T07:51:41;97399.81;;;14.33;97.50
58223;BME280;44020;50.890;15.796;2022-09-09T07:54:10;97404.67;;;14.43;97.51
58223;BME280;44020;50.890;15.796;2022-09-09T07:56:39;97403.64;;;14.52;97.74
58223;BME280;44020;50.890;15.796;2022-09-09T07:59:06;97404.66;;;14.61;97.78
58223;BME280;44020;50.890;15.796;2022-09-09T08:01:37;97404.61;;;14.69;97.76
58223;BME280;44020;50.890;15.796;2022-09-09T08:04:14;97409.91;;;14.82;97.93
58223;BME280;44020;50.890;15.796;2022-09-09T08:07:01;97407.62;;;14.91;97.63
58223;BME280;44020;50.890;15.796;2022-09-09T08:09:29;97408.23;;;15.01;97.46
58223;BME280;44020;50.890;15.796;2022-09-09T08:11:59;97410.05;;;15.11;97.78
58223;BME280;44020;50.890;15.796;2022-09-09T08:14:26;97408.80;;;15.20;97.67
58223;BME280;44020;50.890;15.796;2022-09-09T08:16:53;97405.90;;;15.30;97.40
58223;BME280;44020;50.890;15.796;2022-09-09T08:19:20;97405.45;;;15.43;97.64
58223;BME280;44020;50.890;15.796;2022-09-09T08:21:47;97407.23;;;15.58;97.50
58223;BME280;44020;50.890;15.796;2022-09-09T08:24:15;97411.69;;;15.71;96.92
58223;BME280;44020;50.890;15.796;2022-09-09T08:26:44;97411.11;;;15.83;96.64
58223;BME280;44020;50.890;15.796;2022-09-09T08:29:12;97406.90;;;15.97;96.11
58223;BME280;44020;50.890;15.796;2022-09-09T08:31:44;97406.01;;;16.12;95.97
58223;BME280;44020;50.890;15.796;2022-09-09T08:34:11;97410.55;;;16.28;95.77
58223;BME280;44020;50.890;15.796;2022-09-09T08:36:44;97409.73;;;16.39;95.05
58223;BME280;44020;50.890;15.796;2022-09-09T08:39:13;97407.81;;;16.50;94.62
58223;BME280;44020;50.890;15.796;2022-09-09T08:50:26;97409.73;;;16.99;91.89
58223;BME280;44020;50.890;15.796;2022-09-09T08:58:21;97414.35;;;17.30;91.26
58223;BME280;44020;50.890;15.796;2022-09-09T09:03:48;97421.91;;;17.40;89.84
58223;BME280;44020;50.890;15.796;2022-09-09T09:11:55;97405.06;;;17.62;88.32
58223;BME280;44020;50.890;15.796;2022-09-09T09:14:29;97400.52;;;17.64;88.03
58223;BME280;44020;50.890;15.796;2022-09-09T09:17:00;97403.89;;;17.70;88.39
58223;BME280;44020;50.890;15.796;2022-09-09T09:19:32;97405.05;;;17.78;88.33
58223;BME280;44020;50.890;15.796;2022-09-09T09:22:10;97405.64;;;17.88;87.97
58223;BME280;44020;50.890;15.796;2022-09-09T09:27:45;97409.68;;;17.97;86.78
58223;BME280;44020;50.890;15.796;2022-09-09T09:35:30;97413.98;;;18.07;83.04
58223;BME280;44020;50.890;15.796;2022-09-09T09:37:57;97419.96;;;18.12;82.22
58223;BME280;44020;50.890;15.796;2022-09-09T09:40:24;97423.09;;;18.20;81.60
58223;BME280;44020;50.890;15.796;2022-09-09T09:45:35;97419.64;;;18.36;78.95
58223;BME280;44020;50.890;15.796;2022-09-09T09:48:09;97419.38;;;18.45;78.48
58223;BME280;44020;50.890;15.796;2022-09-09T09:53:23;97415.14;;;18.71;78.01
58223;BME280;44020;50.890;15.796;2022-09-09T09:56:00;97412.45;;;18.83;77.88
58223;BME280;44020;50.890;15.796;2022-09-09T09:58:31;97413.79;;;18.93;77.59
58223;BME280;44020;50.890;15.796;2022-09-09T10:01:01;97411.05;;;19.02;76.29
58223;BME280;44020;50.890;15.796;2022-09-09T10:03:33;97411.59;;;19.07;73.66
58223;BME280;44020;50.890;15.796;2022-09-09T10:06:06;97415.38;;;19.14;72.26
58223;BME280;44020;50.890;15.796;2022-09-09T10:08:43;97411.96;;;19.22;72.41
58223;BME280;44020;50.890;15.796;2022-09-09T10:22:58;97398.52;;;19.78;69.85
58223;BME280;44020;50.890;15.796;2022-09-09T10:26:19;97390.60;;;19.89;69.55
58223;BME280;44020;50.890;15.796;2022-09-09T10:28:29;97396.42;;;19.96;68.85
58223;BME280;44020;50.890;15.796;2022-09-09T10:36:27;97389.44;;;20.32;67.51
58223;BME280;44020;50.890;15.796;2022-09-09T10:42:04;97386.80;;;20.49;66.75
58223;BME280;44020;50.890;15.796;2022-09-09T10:47:35;97391.17;;;20.80;66.19
58223;BME280;44020;50.890;15.796;2022-09-09T10:55:51;97389.39;;;21.28;64.83
58223;BME280;44020;50.890;15.796;2022-09-09T10:58:25;97387.48;;;21.43;63.85
58223;BME280;44020;50.890;15.796;2022-09-09T11:00:57;97388.02;;;21.55;62.80
58223;BME280;44020;50.890;15.796;2022-09-09T11:03:29;97390.51;;;21.66;62.49
58223;BME280;44020;50.890;15.796;2022-09-09T11:06:04;97384.30;;;21.78;62.40
58223;BME280;44020;50.890;15.796;2022-09-09T11:08:34;97378.27;;;21.92;62.07
58223;BME280;44020;50.890;15.796;2022-09-09T11:11:22;97375.96;;;22.04;61.43
58223;BME280;44020;50.890;15.796;2022-09-09T11:16:40;97381.73;;;22.22;60.58
58223;BME280;44020;50.890;15.796;2022-09-09T11:19:22;97380.11;;;22.31;60.03
58223;BME280;44020;50.890;15.796;2022-09-09T11:21:53;97380.02;;;22.38;59.25
58223;BME280;44020;50.890;15.796;2022-09-09T11:24:43;97376.20;;;22.43;58.53
58223;BME280;44020;50.890;15.796;2022-09-09T11:40:45;97378.81;;;23.03;56.75
58223;BME280;44020;50.890;15.796;2022-09-09T11:43:32;97374.73;;;23.13;56.50
58223;BME280;44020;50.890;15.796;2022-09-09T11:46:02;97374.27;;;23.18;56.07
58223;BME280;44020;50.890;15.796;2022-09-09T11:51:07;97371.09;;;23.28;54.38
58223;BME280;44020;50.890;15.796;2022-09-09T11:53:59;97362.59;;;23.28;53.70
58223;BME280;44020;50.890;15.796;2022-09-09T11:56:33;97361.70;;;23.32;53.98
58223;BME280;44020;50.890;15.796;2022-09-09T11:59:06;97359.14;;;23.34;53.76
58223;BME280;44020;50.890;15.796;2022-09-09T12:01:59;97360.05;;;23.39;54.26
58223;BME280;44020;50.890;15.796;2022-09-09T12:04:32;97363.13;;;23.48;53.72
58223;BME280;44020;50.890;15.796;2022-09-09T12:19:42;97375.23;;;23.78;50.60
58223;BME280;44020;50.890;15.796;2022-09-09T12:22:53;97372.45;;;23.87;47.86
58223;BME280;44020;50.890;15.796;2022-09-09T12:28:18;97364.91;;;23.98;48.17
58223;BME280;44020;50.890;15.796;2022-09-09T12:33:22;97355.47;;;24.08;47.88
58223;BME280;44020;50.890;15.796;2022-09-09T12:35:55;97355.76;;;24.13;47.01
58223;BME280;44020;50.890;15.796;2022-09-09T12:38:35;97365.39;;;24.24;47.47
58223;BME280;44020;50.890;15.796;2022-09-09T12:41:03;97368.98;;;24.31;48.30
58223;BME280;44020;50.890;15.796;2022-09-09T12:43:30;97361.77;;;24.39;47.38
58223;BME280;44020;50.890;15.796;2022-09-09T12:46:08;97355.89;;;24.47;48.04
58223;BME280;44020;50.890;15.796;2022-09-09T12:48:40;97356.97;;;24.34;46.70
58223;BME280;44020;50.890;15.796;2022-09-09T12:51:32;97354.84;;;24.15;46.88
58223;BME280;44020;50.890;15.796;2022-09-09T12:54:00;97351.15;;;23.97;47.21
58223;BME280;44020;50.890;15.796;2022-09-09T12:56:30;97343.30;;;23.85;47.76
58223;BME280;44020;50.890;15.796;2022-09-09T12:58:58;97340.45;;;23.78;47.88
58223;BME280;44020;50.890;15.796;2022-09-09T13:01:32;97342.36;;;23.72;48.80
58223;BME280;44020;50.890;15.796;2022-09-09T13:04:00;97343.09;;;23.68;49.71
58223;BME280;44020;50.890;15.796;2022-09-09T13:06:31;97345.10;;;23.64;50.81
58223;BME280;44020;50.890;15.796;2022-09-09T13:09:00;97341.23;;;23.62;50.73
58223;BME280;44020;50.890;15.796;2022-09-09T13:11:41;97339.74;;;23.63;51.62
58223;BME280;44020;50.890;15.796;2022-09-09T13:14:18;97336.73;;;23.67;51.87
58223;BME280;44020;50.890;15.796;2022-09-09T13:16:57;97339.88;;;23.65;51.53
58223;BME280;44020;50.890;15.796;2022-09-09T13:19:25;97336.60;;;23.61;51.25
58223;BME280;44020;50.890;15.796;2022-09-09T13:21:55;97333.48;;;23.57;51.83
58223;BME280;44020;50.890;15.796;2022-09-09T13:24:33;97331.88;;;23.50;52.09
58223;BME280;44020;50.890;15.796;2022-09-09T13:27:04;97339.34;;;23.45;52.43
58223;BME280;44020;50.890;15.796;2022-09-09T13:29:32;97338.23;;;23.41;52.65
58223;BME280;44020;50.890;15.796;2022-09-09T13:32:07;97332.08;;;23.36;52.70
58223;BME280;44020;50.890;15.796;2022-09-09T13:34:39;97328.83;;;23.34;53.04
58223;BME280;44020;50.890;15.796;2022-09-09T13:37:31;97327.04;;;23.34;53.50
58223;BME280;44020;50.890;15.796;2022-09-09T13:40:00;97330.54;;;23.32;54.38
58223;BME280;44020;50.890;15.796;2022-09-09T13:42:32;97335.61;;;23.28;54.12
58223;BME280;44020;50.890;15.796;2022-09-09T13:45:02;97336.52;;;23.22;53.91
58223;BME280;44020;50.890;15.796;2022-09-09T13:47:35;97340.80;;;23.17;53.28
58223;BME280;44020;50.890;15.796;2022-09-09T13:52:49;97338.64;;;23.10;52.82
58223;BME280;44020;50.890;15.796;2022-09-09T13:55:18;97338.84;;;23.07;53.20
58223;BME280;44020;50.890;15.796;2022-09-09T13:58:03;97335.06;;;23.02;53.18
58223;BME280;44020;50.890;15.796;2022-09-09T14:00:33;97333.54;;;23.00;52.69
58223;BME280;44020;50.890;15.796;2022-09-09T14:03:00;97332.19;;;22.97;52.95
58223;BME280;44020;50.890;15.796;2022-09-09T14:05:32;97328.73;;;22.94;53.85
58223;BME280;44020;50.890;15.796;2022-09-09T14:08:02;97326.33;;;22.91;53.94
58223;BME280;44020;50.890;15.796;2022-09-09T14:10:29;97325.95;;;22.87;54.40
58223;BME280;44020;50.890;15.796;2022-09-09T14:12:56;97325.30;;;22.83;55.02
58223;BME280;44020;50.890;15.796;2022-09-09T14:15:23;97315.25;;;22.81;55.61
58223;BME280;44020;50.890;15.796;2022-09-09T14:17:50;97318.17;;;22.80;55.52
58223;BME280;44020;50.890;15.796;2022-09-09T14:20:18;97317.05;;;22.77;55.51
58223;BME280;44020;50.890;15.796;2022-09-09T14:22:46;97322.25;;;22.75;56.04
58223;BME280;44020;50.890;15.796;2022-09-09T14:25:13;97324.38;;;22.71;56.46
58223;BME280;44020;50.890;15.796;2022-09-09T14:27:40;97324.83;;;22.66;56.38
58223;BME280;44020;50.890;15.796;2022-09-09T14:30:07;97324.50;;;22.61;56.10
58223;BME280;44020;50.890;15.796;2022-09-09T14:32:34;97325.25;;;22.57;55.97
58223;BME280;44020;50.890;15.796;2022-09-09T14:35:01;97324.42;;;22.53;55.93
58223;BME280;44020;50.890;15.796;2022-09-09T14:37:28;97328.92;;;22.49;55.53
58223;BME280;44020;50.890;15.796;2022-09-09T14:39:58;97325.25;;;22.45;55.62
58223;BME280;44020;50.890;15.796;2022-09-09T14:42:30;97322.14;;;22.43;55.67
58223;BME280;44020;50.890;15.796;2022-09-09T14:44:56;97323.73;;;22.43;55.44
58223;BME280;44020;50.890;15.796;2022-09-09T14:47:23;97321.54;;;22.46;55.78
58223;BME280;44020;50.890;15.796;2022-09-09T14:49:50;97323.84;;;22.42;56.00
58223;BME280;44020;50.890;15.796;2022-09-09T14:52:17;97323.14;;;22.39;56.33
58223;BME280;44020;50.890;15.796;2022-09-09T14:54:44;97319.98;;;22.37;56.01
58223;BME280;44020;50.890;15.796;2022-09-09T14:57:11;97314.11;;;22.35;56.24
58223;BME280;44020;50.890;15.796;2022-09-09T14:59:38;97310.61;;;22.32;55.98
58223;BME280;44020;50.890;15.796;2022-09-09T15:02:05;97309.50;;;22.30;56.02
58223;BME280;44020;50.890;15.796;2022-09-09T15:04:32;97310.89;;;22.27;55.88
58223;BME280;44020;50.890;15.796;2022-09-09T15:06:59;97311.39;;;22.23;55.61
58223;BME280;44020;50.890;15.796;2022-09-09T15:09:26;97308.79;;;22.20;55.94
58223;BME280;44020;50.890;15.796;2022-09-09T15:11:53;97307.17;;;22.18;56.70
58223;BME280;44020;50.890;15.796;2022-09-09T15:14:20;97301.48;;;22.18;57.50
58223;BME280;44020;50.890;15.796;2022-09-09T15:16:47;97301.27;;;22.17;57.92
58223;BME280;44020;50.890;15.796;2022-09-09T15:19:14;97297.38;;;22.13;58.33
58223;BME280;44020;50.890;15.796;2022-09-09T15:21:41;97293.79;;;22.10;58.67
58223;BME280;44020;50.890;15.796;2022-09-09T15:24:08;97298.19;;;22.08;59.06
58223;BME280;44020;50.890;15.796;2022-09-09T15:26:36;97301.95;;;22.07;59.42
58223;BME280;44020;50.890;15.796;2022-09-09T15:29:05;97300.33;;;22.04;59.87
58223;BME280;44020;50.890;15.796;2022-09-09T15:31:35;97305.64;;;22.02;59.97
58223;BME280;44020;50.890;15.796;2022-09-09T15:34:05;97309.20;;;21.99;60.48
58223;BME280;44020;50.890;15.796;2022-09-09T15:36:39;97311.14;;;21.98;60.84
58223;BME280;44020;50.890;15.796;2022-09-09T15:39:09;97307.51;;;21.97;61.39
58223;BME280;44020;50.890;15.796;2022-09-09T15:41:39;97305.20;;;21.94;61.58
58223;BME280;44020;50.890;15.796;2022-09-09T15:44:07;97302.96;;;21.88;61.97
58223;BME280;44020;50.890;15.796;2022-09-09T15:46:43;97306.31;;;21.86;62.24
58223;BME280;44020;50.890;15.796;2022-09-09T15:49:15;97309.77;;;21.81;62.61
58223;BME280;44020;50.890;15.796;2022-09-09T15:51:50;97319.77;;;21.75;62.49
58223;BME280;44020;50.890;15.796;2022-09-09T15:54:18;97325.40;;;21.71;62.70
58223;BME280;44020;50.890;15.796;2022-09-09T15:56:47;97321.04;;;21.66;62.92
58223;BME280;44020;50.890;15.796;2022-09-09T15:59:16;97321.98;;;21.62;63.10
58223;BME280;44020;50.890;15.796;2022-09-09T16:01:43;97315.98;;;21.57;63.32
58223;BME280;44020;50.890;15.796;2022-09-09T16:04:10;97317.14;;;21.52;63.39
58223;BME280;44020;50.890;15.796;2022-09-09T16:06:37;97309.93;;;21.48;63.49
58223;BME280;44020;50.890;15.796;2022-09-09T16:09:06;97300.20;;;21.43;63.56
58223;BME280;44020;50.890;15.796;2022-09-09T16:11:36;97297.55;;;21.38;63.88
58223;BME280;44020;50.890;15.796;2022-09-09T16:14:04;97301.21;;;21.33;64.33
58223;BME280;44020;50.890;15.796;2022-09-09T16:16:33;97309.84;;;21.29;64.51
58223;BME280;44020;50.890;15.796;2022-09-09T16:19:10;97320.32;;;21.23;64.56
58223;BME280;44020;50.890;15.796;2022-09-09T16:21:42;97327.88;;;21.17;64.55
58223;BME280;44020;50.890;15.796;2022-09-09T16:24:13;97328.51;;;21.10;64.43
58223;BME280;44020;50.890;15.796;2022-09-09T16:26:46;97326.13;;;21.03;64.70
58223;BME280;44020;50.890;15.796;2022-09-09T16:29:14;97323.95;;;20.98;65.16
58223;BME280;44020;50.890;15.796;2022-09-09T16:31:42;97323.16;;;20.91;65.36
58223;BME280;44020;50.890;15.796;2022-09-09T16:34:10;97330.89;;;20.86;65.91
58223;BME280;44020;50.890;15.796;2022-09-09T16:36:39;97332.10;;;20.78;66.36
58223;BME280;44020;50.890;15.796;2022-09-09T16:39:13;97329.34;;;20.73;66.95
58223;BME280;44020;50.890;15.796;2022-09-09T16:41:41;97332.98;;;20.68;66.58